createdAt,value
2022-09-15T00:02:42.902Z,2.65
2022-09-15T00:08:53.597Z,2.33
2022-09-15T00:15:05.989Z,2.40
2022-09-15T00:21:16.613Z,2.62
2022-09-15T00:33:46.327Z,2.80
2022-09-15T00:40:01.017Z,2.27
2022-09-15T00:46:11.386Z,2.47
2022-09-15T00:52:22.063Z,2.02
2022-09-15T00:58:34.095Z,3.02
2022-09-15T01:04:45.510Z,1.95
2022-09-15T01:10:54.572Z,2.67
2022-09-15T01:17:08.795Z,2.15
2022-09-15T01:23:55.056Z,2.80
2022-09-15T01:30:13.689Z,3.40
2022-09-15T01:36:26.975Z,3.15
2022-09-15T01:42:36.791Z,3.15
2022-09-15T01:48:47.017Z,3.08
2022-09-15T01:55:02.159Z,3.17
2022-09-15T02:01:17.563Z,2.70
2022-09-15T02:07:30.000Z,3.50
2022-09-15T02:13:47.785Z,3.62
2022-09-15T02:20:03.082Z,2.87
2022-09-15T02:26:20.320Z,2.80
2022-09-15T02:32:31.926Z,3.17
2022-09-15T02:38:44.012Z,3.60
2022-09-15T02:44:58.498Z,2.60
2022-09-15T02:51:11.496Z,2.80
2022-09-15T02:57:25.961Z,3.35
2022-09-15T03:03:39.915Z,2.80
2022-09-15T03:09:47.236Z,2.83
2022-09-15T03:15:56.373Z,2.90
2022-09-15T03:22:11.915Z,3.17
2022-09-15T03:28:20.845Z,2.75
2022-09-15T03:34:34.234Z,3.33
2022-09-15T03:40:41.999Z,2.70
2022-09-15T03:46:52.646Z,2.70
2022-09-15T03:53:05.942Z,3.40
2022-09-15T03:59:18.523Z,2.62
2022-09-15T04:05:29.368Z,2.33
2022-09-15T04:11:43.333Z,2.80
2022-09-15T04:17:55.872Z,3.10
2022-09-15T04:24:08.482Z,2.72
2022-09-15T04:30:23.135Z,3.27
2022-09-15T04:36:35.686Z,2.80
2022-09-15T04:42:48.094Z,2.77
2022-09-15T04:48:58.618Z,2.58
2022-09-15T04:55:06.623Z,2.67
2022-09-15T05:01:17.295Z,2.17
2022-09-15T05:07:31.683Z,2.90
2022-09-15T05:13:43.454Z,2.52
2022-09-15T05:19:54.626Z,2.60
2022-09-15T05:26:03.393Z,2.52
2022-09-15T05:32:14.045Z,2.47
2022-09-15T05:38:27.644Z,3.08
2022-09-15T05:44:41.941Z,2.20
2022-09-15T05:50:55.659Z,1.77
2022-09-15T05:57:09.723Z,2.27
2022-09-15T06:03:22.178Z,2.47
2022-09-15T06:09:31.217Z,1.35
2022-09-15T06:15:41.979Z,2.27
2022-09-15T06:21:53.462Z,2.55
2022-09-15T06:28:06.182Z,2.10
2022-09-15T06:34:17.171Z,2.27
2022-09-15T06:40:28.236Z,2.02
2022-09-15T06:46:41.605Z,1.80
2022-09-15T06:52:54.972Z,1.92
2022-09-15T06:59:06.007Z,2.33
2022-09-15T07:05:18.660Z,1.10
2022-09-15T07:11:29.404Z,1.52
2022-09-15T07:17:41.747Z,1.35
2022-09-15T07:23:52.623Z,2.15
2022-09-15T07:30:02.828Z,1.25
2022-09-15T07:36:16.526Z,1.17
2022-09-15T07:42:28.637Z,1.45
2022-09-15T07:48:40.513Z,1.82
2022-09-15T07:54:53.988Z,1.52
2022-09-15T08:01:09.783Z,1.75
2022-09-15T08:07:20.916Z,1.30
2022-09-15T08:13:32.561Z,1.27
2022-09-15T08:19:46.706Z,1.55
2022-09-15T08:25:55.265Z,1.40
2022-09-15T08:32:06.323Z,1.20
2022-09-15T08:38:18.836Z,1.22
2022-09-15T08:44:38.297Z,1.12
2022-09-15T08:50:54.597Z,1.40
2022-09-15T08:57:07.703Z,1.85
2022-09-15T09:03:33.745Z,1.75
2022-09-15T09:09:48.094Z,1.60
2022-09-15T09:16:09.267Z,1.35
2022-09-15T09:22:21.458Z,1.20
2022-09-15T09:28:50.685Z,1.20
2022-09-15T09:35:05.219Z,1.52
2022-09-15T09:41:18.841Z,1.00
2022-09-15T09:47:32.994Z,1.70
2022-09-15T09:53:47.043Z,1.12
2022-09-15T09:59:58.460Z,0.90
2022-09-15T10:06:09.534Z,1.47
2022-09-15T10:12:27.872Z,1.57
2022-09-15T10:18:42.455Z,1.42
2022-09-15T10:24:54.979Z,1.20
2022-09-15T10:31:32.946Z,1.57
2022-09-15T10:37:59.547Z,1.55
2022-09-15T10:44:25.830Z,0.78
2022-09-15T10:50:39.276Z,1.47
2022-09-15T10:56:50.611Z,1.27
2022-09-15T11:03:30.941Z,1.40
2022-09-15T11:09:44.927Z,1.45
2022-09-15T11:16:01.613Z,0.70
2022-09-15T11:22:15.572Z,1.45
2022-09-15T11:28:24.174Z,1.55
2022-09-15T11:34:37.121Z,1.27
2022-09-15T11:40:50.355Z,1.10
2022-09-15T11:47:27.293Z,1.22
2022-09-15T11:53:42.454Z,1.62
2022-09-15T12:00:00.175Z,1.40
2022-09-15T12:06:17.685Z,0.65
2022-09-15T12:12:30.789Z,0.72
2022-09-15T12:18:46.691Z,1.02
2022-09-15T12:25:03.497Z,1.35
2022-09-15T12:31:48.805Z,1.47
2022-09-15T12:38:04.087Z,0.90
2022-09-15T12:44:16.974Z,1.02
2022-09-15T12:50:31.629Z,1.35
2022-09-15T12:56:46.020Z,1.70
2022-09-15T13:09:33.629Z,1.80
2022-09-15T13:15:47.949Z,1.62
2022-09-15T13:22:04.872Z,1.30
2022-09-15T13:35:16.681Z,1.85
2022-09-15T13:41:44.726Z,1.27
2022-09-15T13:48:20.311Z,1.27
2022-09-15T13:54:30.177Z,1.20
2022-09-15T14:00:41.995Z,0.93
2022-09-15T14:06:58.542Z,1.07
2022-09-15T14:13:09.399Z,1.05
2022-09-15T14:19:37.725Z,1.10
2022-09-15T14:25:53.043Z,0.72
2022-09-15T14:32:09.638Z,1.85
2022-09-15T14:51:06.697Z,1.12
2022-09-15T14:57:21.008Z,1.02
2022-09-15T15:03:36.924Z,0.65
2022-09-15T15:09:47.557Z,0.70
2022-09-15T15:16:00.191Z,0.83
2022-09-15T15:22:23.938Z,1.10
2022-09-15T15:28:41.761Z,1.70
2022-09-15T15:34:58.200Z,0.72
2022-09-15T15:41:11.260Z,1.02
2022-09-15T15:47:34.688Z,0.62
2022-09-15T15:53:47.532Z,0.60
2022-09-15T16:00:03.582Z,1.05
2022-09-15T16:06:16.772Z,0.50
2022-09-15T16:12:31.904Z,0.95
2022-09-15T16:18:41.663Z,0.90
2022-09-15T16:24:57.496Z,1.30
2022-09-15T16:31:07.639Z,0.70
2022-09-15T16:37:17.586Z,0.78
2022-09-15T16:43:39.329Z,1.07
2022-09-15T16:49:54.999Z,1.15
2022-09-15T16:56:06.076Z,1.27
2022-09-15T17:02:21.330Z,1.62
2022-09-15T17:08:32.296Z,2.40
2022-09-15T17:14:44.970Z,1.10
2022-09-15T17:20:55.803Z,0.80
2022-09-15T17:27:08.630Z,0.80
2022-09-15T17:33:20.532Z,0.98
2022-09-15T17:39:30.492Z,0.68
2022-09-15T17:51:52.931Z,0.70
2022-09-15T17:58:07.537Z,0.80
2022-09-15T18:04:17.176Z,0.50
2022-09-15T18:10:29.052Z,0.75
2022-09-15T18:16:43.142Z,0.50
2022-09-15T18:22:54.686Z,0.30
2022-09-15T18:29:04.787Z,0.62
2022-09-15T18:35:18.528Z,0.47
2022-09-15T18:41:28.444Z,1.05
2022-09-15T18:47:41.078Z,0.68
2022-09-15T18:53:54.463Z,0.53
2022-09-15T19:00:07.294Z,0.50
2022-09-15T19:06:15.278Z,0.57
2022-09-15T19:12:27.026Z,0.70
2022-09-15T19:18:40.958Z,0.75
2022-09-15T19:24:53.593Z,0.57
2022-09-15T19:31:05.882Z,0.80
2022-09-15T19:37:19.022Z,0.40
2022-09-15T19:43:32.499Z,0.40
2022-09-15T19:49:41.800Z,0.62
2022-09-15T19:55:55.394Z,0.33
2022-09-15T20:02:08.277Z,0.60
2022-09-15T20:08:18.702Z,0.33
2022-09-15T20:14:29.567Z,0.47
2022-09-15T20:20:40.668Z,0.30
2022-09-15T20:26:53.374Z,0.53
2022-09-15T20:33:03.631Z,0.93
2022-09-15T20:39:16.047Z,0.30
2022-09-15T20:45:26.797Z,0.45
2022-09-15T20:51:41.267Z,0.30
2022-09-15T20:57:50.472Z,0.50
2022-09-15T21:04:01.548Z,0.33
2022-09-15T21:10:16.510Z,0.42
2022-09-15T21:16:33.381Z,0.72
2022-09-15T21:22:44.963Z,0.50
2022-09-15T21:28:55.937Z,0.40
2022-09-15T21:35:10.910Z,0.70
2022-09-15T21:41:24.402Z,0.62
2022-09-15T21:47:38.251Z,0.50
2022-09-15T21:53:48.480Z,0.30
2022-09-15T22:00:00.014Z,0.40
2022-09-15T22:06:08.985Z,0.57
2022-09-15T22:12:20.050Z,0.40
2022-09-15T22:18:30.981Z,0.45
2022-09-15T22:24:42.238Z,0.68
2022-09-15T22:30:56.870Z,0.50
2022-09-15T22:37:08.712Z,0.60
2022-09-15T22:43:22.180Z,0.53
2022-09-15T22:49:34.729Z,0.60
2022-09-15T22:55:46.115Z,0.40
2022-09-15T23:01:58.714Z,0.30
2022-09-15T23:08:11.526Z,0.37
2022-09-15T23:14:26.314Z,0.60
2022-09-15T23:20:39.581Z,0.42
2022-09-15T23:26:49.832Z,0.40
2022-09-15T23:33:02.542Z,0.40
2022-09-15T23:39:13.854Z,0.50
2022-09-15T23:45:24.213Z,0.40
2022-09-15T23:51:36.351Z,0.53
2022-09-15T23:57:48.802Z,0.23
